Time;durP1;ratioP1;P1;durP2;ratioP2;P2;SDS_P1;SDS_P2;PMS_P1;PMS_P2;Temp;Humidity;BMP_temperature;BMP_pressure;BME280_temperature;BME280_humidity;BME280_pressure;Samples;Min_cycle;Max_cycle;Signal;HPM_P1;HPM_P2
2023/05/11 00:00:00;;;;;;;;;;;;;;;9.73;73.37;101528.47;4976371;28;19917;-86
2023/05/11 00:02:26;;;;;;;;;;;;;;;9.75;73.30;101527.53;4982836;28;19922;-86
2023/05/11 00:04:54;;;;;;;;;;;;;;;9.72;73.98;101524.13;4971005;28;20041;-86
2023/05/11 00:07:19;;;;;;;;;;;;;;;9.71;73.75;101526.91;4977534;28;20280;-85
2023/05/11 00:09:44;;;;;;;;;;;;;;;9.76;74.13;101527.38;4977214;28;19929;-85
2023/05/11 00:12:12;;;;;;;;;;;;;;;9.76;74.06;101522.00;4989788;28;19925;-85
2023/05/11 00:14:38;;;;;;;;;;;;;;;9.79;74.01;101524.44;4995674;28;19968;-87
2023/05/11 00:17:11;;;;;;;;;;;;;;;9.80;74.71;101526.13;4996290;28;19925;-86
2023/05/11 00:19:37;;;;;;;;;;;;;;;9.85;74.99;101521.19;4977970;28;20104;-86
2023/05/11 00:22:02;;;;;;;;;;;;;;;9.91;74.82;101526.03;4991244;28;19918;-87
2023/05/11 00:24:29;;;;;;;;;;;;;;;9.89;75.24;101524.47;4986751;28;20064;-86
2023/05/11 00:26:54;;;;;;;;;;;;;;;9.91;75.15;101526.03;4980473;28;20028;-87
2023/05/11 00:29:21;;;;;;;;;;;;;;;9.90;75.31;101523.47;4957831;28;19937;-88
2023/05/11 00:31:48;;;;;;;;;;;;;;;9.92;75.23;101526.88;4971004;28;20020;-87
2023/05/11 00:34:14;;;;;;;;;;;;;;;9.93;75.32;101532.13;4986286;28;19926;-88
2023/05/11 00:36:41;;;;;;;;;;;;;;;9.93;75.19;101532.13;4984119;28;20002;-87
2023/05/11 00:39:07;;;;;;;;;;;;;;;9.93;74.82;101532.13;4979879;28;19918;-87
2023/05/11 00:41:32;;;;;;;;;;;;;;;9.99;74.58;101532.56;4977425;28;19922;-88
2023/05/11 00:44:07;;;;;;;;;;;;;;;9.94;74.81;101531.13;4982001;28;20060;-88
2023/05/11 00:46:38;;;;;;;;;;;;;;;9.91;74.81;101536.78;4977805;28;19968;-89
2023/05/11 00:49:07;;;;;;;;;;;;;;;9.90;73.70;101527.03;4965172;28;20391;-89
2023/05/11 00:51:33;;;;;;;;;;;;;;;9.67;74.24;101526.34;4989845;28;19929;-87
2023/05/11 00:53:59;;;;;;;;;;;;;;;9.62;74.34;101525.03;4978593;28;19922;-88
2023/05/11 00:56:32;;;;;;;;;;;;;;;9.56;74.30;101521.06;4983435;28;19922;-88
2023/05/11 00:58:58;;;;;;;;;;;;;;;9.58;74.38;101521.78;4970515;28;19921;-87
2023/05/11 01:01:25;;;;;;;;;;;;;;;9.49;74.63;101528.78;4984028;28;19984;-88
2023/05/11 01:03:51;;;;;;;;;;;;;;;9.39;74.98;101519.84;4983200;28;20021;-89
2023/05/11 01:06:55;;;;;;;;;;;;;;;9.40;75.08;101518.00;4971566;28;20009;-87
2023/05/11 01:09:29;;;;;;;;;;;;;;;9.38;75.56;101520.81;4930809;29;19974;-89
2023/05/11 01:12:28;;;;;;;;;;;;;;;9.38;75.85;101518.13;4935192;29;19962;-87
2023/05/11 01:15:02;;;;;;;;;;;;;;;9.28;76.36;101522.59;4933988;28;19922;-89
2023/05/11 01:17:37;;;;;;;;;;;;;;;9.29;76.60;101525.16;4963447;28;20271;-88
2023/05/11 01:20:05;;;;;;;;;;;;;;;9.30;76.59;101521.47;4991973;28;19993;-87
2023/05/11 01:23:06;;;;;;;;;;;;;;;9.33;76.84;101524.88;4988072;28;19918;-88
2023/05/11 01:25:50;;;;;;;;;;;;;;;9.31;76.80;101527.69;4990994;28;19922;-88
2023/05/11 01:28:21;;;;;;;;;;;;;;;9.32;77.08;101532.09;4992446;28;19965;-88
2023/05/11 01:30:47;;;;;;;;;;;;;;;9.27;77.15;101520.88;4991733;28;19940;-88
2023/05/11 01:33:13;;;;;;;;;;;;;;;9.30;77.59;101523.31;4973916;28;20362;-89
2023/05/11 01:35:49;;;;;;;;;;;;;;;9.35;77.84;101522.94;4974739;28;19960;-89
2023/05/11 01:38:21;;;;;;;;;;;;;;;9.42;77.54;101519.56;4978480;28;19965;-87
2023/05/11 01:40:49;;;;;;;;;;;;;;;9.42;77.38;101516.88;4999767;28;19919;-84
2023/05/11 01:43:21;;;;;;;;;;;;;;;9.44;77.17;101517.63;4968326;28;19933;-86
2023/05/11 01:45:52;;;;;;;;;;;;;;;9.46;76.86;101517.50;4998293;28;19924;-86
2023/05/11 01:48:19;;;;;;;;;;;;;;;9.46;76.84;101512.97;4991378;28;19922;-90
2023/05/11 01:50:44;;;;;;;;;;;;;;;9.38;77.35;101515.44;4984738;28;19928;-89
2023/05/11 01:53:11;;;;;;;;;;;;;;;9.38;77.52;101510.06;4980523;28;20321;-90
2023/05/11 01:55:36;;;;;;;;;;;;;;;9.39;77.70;101514.47;4952304;28;19918;-90
2023/05/11 01:58:06;;;;;;;;;;;;;;;9.45;77.75;101513.94;4973566;28;19944;-90
2023/05/11 02:00:32;;;;;;;;;;;;;;;9.50;77.72;101516.22;4970379;28;19967;-89
2023/05/11 02:02:58;;;;;;;;;;;;;;;9.50;77.52;101513.53;4974264;28;19922;-90
2023/05/11 02:05:23;;;;;;;;;;;;;;;9.47;77.97;101520.03;4965881;28;20066;-88
2023/05/11 02:07:49;;;;;;;;;;;;;;;9.50;77.90;101516.22;4969633;28;20263;-90
2023/05/11 02:10:18;;;;;;;;;;;;;;;9.51;78.01;101523.31;4973703;28;20252;-90
2023/05/11 02:12:45;;;;;;;;;;;;;;;9.53;78.02;101518.66;4988980;28;20275;-90
2023/05/11 02:15:12;;;;;;;;;;;;;;;9.57;77.96;101516.53;4990327;28;20032;-90
2023/05/11 02:17:39;;;;;;;;;;;;;;;9.56;77.98;101515.69;4960530;28;19929;-89
2023/05/11 02:20:08;;;;;;;;;;;;;;;9.51;78.33;101516.09;4973176;28;19929;-89
2023/05/11 02:22:43;;;;;;;;;;;;;;;9.57;78.11;101508.50;4982381;28;19922;-90
2023/05/11 02:25:26;;;;;;;;;;;;;;;9.56;78.08;101514.84;4991678;28;19922;-90
2023/05/11 02:27:53;;;;;;;;;;;;;;;9.60;77.91;101509.09;4998077;28;20004;-88
2023/05/11 02:30:18;;;;;;;;;;;;;;;9.65;77.77;101506.00;5001220;28;20024;-88
2023/05/11 02:32:48;;;;;;;;;;;;;;;9.66;77.52;101500.47;4979596;28;19949;-87
2023/05/11 02:35:20;;;;;;;;;;;;;;;9.59;77.82;101506.53;5002410;28;19922;-87
2023/05/11 02:37:48;;;;;;;;;;;;;;;9.57;77.79;101492.38;5005023;28;19918;-88
2023/05/11 02:40:17;;;;;;;;;;;;;;;9.66;77.84;101505.00;4987469;28;20446;-93
2023/05/11 02:42:43;;;;;;;;;;;;;;;9.71;77.75;101497.38;4974770;28;19925;-88
2023/05/11 02:45:10;;;;;;;;;;;;;;;9.78;77.58;101503.91;4968180;28;20341;-88
2023/05/11 02:50:56;;;;;;;;;;;;;;;9.74;77.60;101507.88;4991062;28;19940;-90
2023/05/11 02:53:53;;;;;;;;;;;;;;;9.73;77.46;101506.16;4960889;28;19918;-88
2023/05/11 02:56:27;;;;;;;;;;;;;;;9.75;77.44;101508.72;4972131;28;19991;-89
2023/05/11 03:02:06;;;;;;;;;;;;;;;9.83;77.43;101511.56;4979802;28;19918;-90
2023/05/11 03:07:35;;;;;;;;;;;;;;;9.87;77.01;101511.16;4986638;28;20350;-90
2023/05/11 03:13:17;;;;;;;;;;;;;;;10.02;76.32;101521.53;4982187;28;20066;-92
2023/05/11 03:18:46;;;;;;;;;;;;;;;10.35;75.67;101523.94;5018150;28;20014;-92
2023/05/11 03:21:14;;;;;;;;;;;;;;;10.43;74.93;101527.75;5012330;28;19911;-90
2023/05/11 03:23:56;;;;;;;;;;;;;;;10.45;74.99;101525.78;4988381;28;19918;-90
2023/05/11 03:26:22;;;;;;;;;;;;;;;10.58;74.63;101534.41;5010207;28;19981;-93
2023/05/11 03:29:03;;;;;;;;;;;;;;;10.66;74.45;101531.06;5017602;28;19949;-91
2023/05/11 03:31:33;;;;;;;;;;;;;;;10.69;73.02;101520.84;5016665;28;19937;-94
2023/05/11 03:34:20;;;;;;;;;;;;;;;10.58;73.58;101526.34;4986391;28;19918;-89
2023/05/11 03:36:48;;;;;;;;;;;;;;;10.55;73.38;101530.19;4978939;28;19937;-89
2023/05/11 03:39:40;;;;;;;;;;;;;;;10.56;73.71;101534.59;5016268;28;19921;-91
2023/05/11 03:42:09;;;;;;;;;;;;;;;10.77;73.39;101528.25;5006363;28;19989;-92
2023/05/11 03:44:35;;;;;;;;;;;;;;;10.83;72.79;101533.03;4996826;28;19910;-89
2023/05/11 03:47:01;;;;;;;;;;;;;;;10.81;72.81;101534.16;5006488;28;19989;-89
2023/05/11 03:49:26;;;;;;;;;;;;;;;10.92;72.84;101540.25;5006012;28;19926;-89
2023/05/11 03:51:52;;;;;;;;;;;;;;;10.90;72.61;101536.84;4991308;28;19949;-90
2023/05/11 03:54:19;;;;;;;;;;;;;;;10.97;72.40;101546.06;5009195;28;19981;-90
2023/05/11 03:56:45;;;;;;;;;;;;;;;11.15;71.90;101542.66;5012201;28;19910;-90
2023/05/11 03:59:18;;;;;;;;;;;;;;;11.20;71.26;101535.00;5010930;28;19929;-91
2023/05/11 04:01:43;;;;;;;;;;;;;;;11.30;70.93;101540.38;4994395;28;19910;-94
2023/05/11 04:04:09;;;;;;;;;;;;;;;11.28;71.12;101536.97;4998886;28;19914;-89
2023/05/11 04:06:35;;;;;;;;;;;;;;;11.19;70.83;101539.53;5007826;28;19918;-93
2023/05/11 04:09:01;;;;;;;;;;;;;;;11.24;70.58;101530.16;4996909;28;20085;-94
2023/05/11 04:11:29;;;;;;;;;;;;;;;11.35;70.58;101554.25;5015701;28;19973;-96
2023/05/11 04:13:59;;;;;;;;;;;;;;;11.28;70.65;101545.03;5005499;28;20574;-95
2023/05/11 04:16:26;;;;;;;;;;;;;;;11.36;70.15;101550.56;5012673;28;19929;-92
2023/05/11 04:18:51;;;;;;;;;;;;;;;11.49;70.43;101551.09;5011766;28;19922;-91
2023/05/11 04:21:16;;;;;;;;;;;;;;;11.56;70.37;101560.28;4992328;28;20438;-91
2023/05/11 04:23:45;;;;;;;;;;;;;;;11.74;69.66;101555.00;4994264;28;19987;-88
2023/05/11 04:26:10;;;;;;;;;;;;;;;11.81;69.26;101564.19;4992086;28;19965;-90
2023/05/11 04:28:35;;;;;;;;;;;;;;;11.88;68.37;101551.00;4984799;28;19966;-91
2023/05/11 04:31:09;;;;;;;;;;;;;;;11.93;68.17;101562.19;4995429;28;20071;-90
2023/05/11 04:33:35;;;;;;;;;;;;;;;11.94;68.15;101561.22;4997185;28;20441;-89
2023/05/11 04:36:02;;;;;;;;;;;;;;;11.90;68.54;101567.88;4976195;28;20350;-90
2023/05/11 04:38:27;;;;;;;;;;;;;;;12.02;68.54;101564.00;4982521;28;20005;-89
2023/05/11 04:40:54;;;;;;;;;;;;;;;12.24;67.96;101559.22;4962880;28;20489;-90
2023/05/11 04:43:21;;;;;;;;;;;;;;;12.37;66.72;101561.56;4990498;28;20049;-89
2023/05/11 04:46:12;;;;;;;;;;;;;;;12.57;65.59;101565.84;4991385;28;20038;-89
2023/05/11 04:48:37;;;;;;;;;;;;;;;12.83;61.20;101556.97;4984696;28;19922;-89
2023/05/11 04:51:07;;;;;;;;;;;;;;;12.86;59.92;101571.03;4969363;28;19922;-89
2023/05/11 04:53:32;;;;;;;;;;;;;;;13.21;59.38;101569.31;4973682;28;19969;-91
2023/05/11 04:55:59;;;;;;;;;;;;;;;13.39;57.84;101568.47;4992517;28;20279;-90
2023/05/11 04:58:26;;;;;;;;;;;;;;;13.57;57.37;101565.75;4990984;28;20262;-90
2023/05/11 05:00:53;;;;;;;;;;;;;;;13.70;56.55;101577.81;4980920;28;19961;-89
2023/05/11 05:03:20;;;;;;;;;;;;;;;13.84;56.37;101579.09;4985280;28;19933;-89
2023/05/11 05:05:45;;;;;;;;;;;;;;;13.82;56.19;101580.25;4975427;28;20000;-88
2023/05/11 05:08:11;;;;;;;;;;;;;;;14.15;56.28;101582.13;4991264;28;19922;-88
2023/05/11 05:10:37;;;;;;;;;;;;;;;13.92;55.99;101587.22;4981480;28;19953;-90
2023/05/11 05:16:17;;;;;;;;;;;;;;;14.09;56.44;101588.19;4993595;28;19996;-89
2023/05/11 05:18:45;;;;;;;;;;;;;;;13.92;56.58;101597.22;4999776;28;20399;-90
2023/05/11 05:21:10;;;;;;;;;;;;;;;13.92;55.98;101592.63;4998069;28;19922;-87
2023/05/11 05:23:37;;;;;;;;;;;;;;;13.83;55.91;101593.59;4982198;28;19930;-90
2023/05/11 05:26:05;;;;;;;;;;;;;;;13.83;56.10;101595.47;4980171;28;19918;-94
2023/05/11 05:28:35;;;;;;;;;;;;;;;13.88;55.38;101593.13;4965594;28;20376;-95
2023/05/11 05:31:06;;;;;;;;;;;;;;;14.10;54.58;101598.00;4990142;28;19949;-94
2023/05/11 05:33:31;;;;;;;;;;;;;;;13.87;54.75;101594.97;4990651;28;19917;-89
2023/05/11 05:35:56;;;;;;;;;;;;;;;14.00;55.02;101599.97;4988851;28;19997;-91
2023/05/11 05:38:22;;;;;;;;;;;;;;;14.19;54.72;101611.53;4994302;28;19981;-92
2023/05/11 05:40:47;;;;;;;;;;;;;;;14.08;56.17;101607.28;4996550;28;19940;-90
2023/05/11 05:43:14;;;;;;;;;;;;;;;14.07;56.10;101606.44;4986331;28;19924;-90
2023/05/11 05:45:40;;;;;;;;;;;;;;;14.21;56.08;101612.22;4972627;28;19925;-90
2023/05/11 05:48:05;;;;;;;;;;;;;;;14.49;56.13;101608.31;4958938;28;19928;-89
2023/05/11 05:50:32;;;;;;;;;;;;;;;14.95;54.92;101621.47;4972115;28;19926;-91
2023/05/11 05:52:57;;;;;;;;;;;;;;;15.20;54.12;101619.66;4980675;28;19953;-88
2023/05/11 05:55:24;;;;;;;;;;;;;;;15.55;52.25;101618.47;4970981;28;19964;-92
2023/05/11 05:57:54;;;;;;;;;;;;;;;15.75;51.61;101621.69;4965483;28;20048;-90
2023/05/11 06:00:23;;;;;;;;;;;;;;;15.96;50.43;101621.16;4972518;28;19917;-92
2023/05/11 06:02:49;;;;;;;;;;;;;;;16.04;49.84;101625.72;4953077;28;20018;-89
2023/05/11 06:05:16;;;;;;;;;;;;;;;16.15;49.29;101619.91;4982420;28;19965;-92
2023/05/11 06:07:46;;;;;;;;;;;;;;;15.81;49.41;101614.75;4974167;28;20317;-92
2023/05/11 06:10:38;;;;;;;;;;;;;;;15.61;50.18;101612.34;4988136;28;19922;-94
2023/05/11 06:13:05;;;;;;;;;;;;;;;16.24;48.94;101624.28;5001404;28;20000;-91
2023/05/11 06:15:32;;;;;;;;;;;;;;;16.07;48.53;101628.09;5001598;28;19930;-91
2023/05/11 06:17:59;;;;;;;;;;;;;;;15.82;48.58;101628.13;5000316;28;20015;-94
2023/05/11 06:20:26;;;;;;;;;;;;;;;16.44;47.36;101630.16;4962661;28;19977;-95
2023/05/11 06:22:55;;;;;;;;;;;;;;;16.09;47.63;101636.91;4985898;28;20343;-88
2023/05/11 06:25:33;;;;;;;;;;;;;;;15.91;48.10;101634.38;4992345;28;19918;-90
2023/05/11 06:28:03;;;;;;;;;;;;;;;15.76;47.23;101626.13;4974075;28;20102;-88
2023/05/11 06:30:30;;;;;;;;;;;;;;;15.95;47.23;101635.75;4992298;28;19918;-86
2023/05/11 06:32:55;;;;;;;;;;;;;;;15.87;47.80;101632.19;4990977;28;20000;-86
2023/05/11 06:35:21;;;;;;;;;;;;;;;16.10;47.61;101627.72;4961979;28;20076;-86
2023/05/11 06:37:48;;;;;;;;;;;;;;;15.74;48.68;101636.28;4990621;28;19945;-86
2023/05/11 06:40:15;;;;;;;;;;;;;;;15.91;49.14;101628.97;4972496;28;20378;-85
2023/05/11 06:42:40;;;;;;;;;;;;;;;15.55;50.07;101623.06;4982611;28;20361;-86
2023/05/11 06:45:06;;;;;;;;;;;;;;;15.35;51.43;101636.09;4971732;28;19930;-88
2023/05/11 06:47:31;;;;;;;;;;;;;;;14.98;52.40;101627.44;4969258;28;20358;-87
2023/05/11 06:49:57;;;;;;;;;;;;;;;14.85;53.15;101631.63;4970161;28;20028;-87
2023/05/11 06:52:22;;;;;;;;;;;;;;;15.16;53.81;101635.38;4988466;28;19918;-86
2023/05/11 06:54:48;;;;;;;;;;;;;;;15.37;53.06;101636.78;4973151;28;19918;-88
2023/05/11 06:57:13;;;;;;;;;;;;;;;15.81;52.29;101629.16;4973901;28;19928;-88
2023/05/11 06:59:39;;;;;;;;;;;;;;;16.17;51.42;101622.47;4971956;28;19918;-86
2023/05/11 07:02:04;;;;;;;;;;;;;;;16.21;50.69;101635.50;4986127;28;19926;-88
2023/05/11 07:04:30;;;;;;;;;;;;;;;16.77;49.84;101629.16;4961205;28;20483;-88
2023/05/11 07:06:56;;;;;;;;;;;;;;;17.34;48.98;101636.97;4963526;28;19918;-86
2023/05/11 07:09:22;;;;;;;;;;;;;;;17.23;48.19;101638.25;4986550;28;19964;-86
2023/05/11 07:11:48;;;;;;;;;;;;;;;17.61;47.36;101632.00;4972137;28;20031;-88
2023/05/11 07:14:15;;;;;;;;;;;;;;;17.77;47.12;101633.69;4973326;28;19933;-87
2023/05/11 07:16:40;;;;;;;;;;;;;;;17.78;46.02;101641.69;4953175;28;19922;-87
2023/05/11 07:19:09;;;;;;;;;;;;;;;18.16;46.52;101640.81;4980288;28;19953;-87
2023/05/11 07:21:37;;;;;;;;;;;;;;;18.42;45.47;101646.63;4982917;28;20208;-85
2023/05/11 07:24:03;;;;;;;;;;;;;;;18.58;44.97;101650.19;4971150;28;19964;-87
2023/05/11 07:26:28;;;;;;;;;;;;;;;18.40;45.30;101637.78;4963480;28;20360;-85
2023/05/11 07:28:53;;;;;;;;;;;;;;;18.66;43.62;101663.69;4978924;28;19918;-85
2023/05/11 07:31:19;;;;;;;;;;;;;;;18.53;44.09;101648.03;4986243;28;19979;-88
2023/05/11 07:33:46;;;;;;;;;;;;;;;18.25;44.81;101654.16;4991109;28;19980;-89
2023/05/11 07:36:11;;;;;;;;;;;;;;;18.65;43.93;101657.41;4972938;28;19932;-91
2023/05/11 07:38:39;;;;;;;;;;;;;;;18.41;43.91;101652.28;4993635;28;19926;-89
2023/05/11 07:41:05;;;;;;;;;;;;;;;18.35;44.79;101657.44;5007907;28;19921;-91
2023/05/11 07:43:30;;;;;;;;;;;;;;;18.31;45.03;101667.00;4975014;28;19995;-92
2023/05/11 07:45:56;;;;;;;;;;;;;;;18.54;45.09;101666.03;4996778;28;19968;-86
2023/05/11 07:48:21;;;;;;;;;;;;;;;18.60;44.84;101665.31;4975908;28;19926;-87
2023/05/11 07:50:51;;;;;;;;;;;;;;;19.47;43.17;101667.16;4992633;28;19922;-87
2023/05/11 07:53:16;;;;;;;;;;;;;;;19.59;42.43;101662.84;4969000;28;19930;-88
2023/05/11 07:55:41;;;;;;;;;;;;;;;20.60;40.39;101653.50;4973023;28;20072;-85
2023/05/11 07:58:07;;;;;;;;;;;;;;;19.84;40.58;101667.91;4970333;28;19933;-84
2023/05/11 08:00:32;;;;;;;;;;;;;;;19.23;42.36;101664.81;4954426;28;19944;-88
2023/05/11 08:02:57;;;;;;;;;;;;;;;19.67;42.04;101670.06;4989724;28;19926;-85
2023/05/11 08:05:24;;;;;;;;;;;;;;;19.03;42.82;101662.69;4988147;28;19922;-89
2023/05/11 08:07:50;;;;;;;;;;;;;;;18.48;43.86;101666.81;4989388;28;19926;-86
2023/05/11 08:10:15;;;;;;;;;;;;;;;18.19;44.97;101676.69;4973124;28;19922;-85
2023/05/11 08:12:40;;;;;;;;;;;;;;;19.42;43.11;101672.34;4973217;28;19976;-85
2023/05/11 08:15:06;;;;;;;;;;;;;;;19.56;41.94;101673.31;4974649;28;19922;-88
2023/05/11 08:17:31;;;;;;;;;;;;;;;19.47;42.59;101672.59;4964222;28;20240;-85
2023/05/11 08:19:57;;;;;;;;;;;;;;;19.19;42.88;101676.09;4972054;28;19921;-85
2023/05/11 08:22:22;;;;;;;;;;;;;;;20.14;41.06;101673.19;4977196;28;19994;-85
2023/05/11 08:24:49;;;;;;;;;;;;;;;20.56;40.78;101666.75;4975144;28;20054;-85
2023/05/11 08:27:16;;;;;;;;;;;;;;;21.13;38.48;101672.00;4969498;28;20397;-88
2023/05/11 08:29:41;;;;;;;;;;;;;;;21.98;36.99;101664.09;4952839;28;20282;-85
2023/05/11 08:32:06;;;;;;;;;;;;;;;22.17;36.24;101656.88;4963145;28;20036;-86
2023/05/11 08:34:32;;;;;;;;;;;;;;;22.33;36.07;101659.19;4990422;28;19968;-88
2023/05/11 08:37:00;;;;;;;;;;;;;;;22.64;35.84;101663.09;4971860;28;19992;-87
2023/05/11 08:39:27;;;;;;;;;;;;;;;21.92;36.29;101665.78;4978437;28;19929;-86
2023/05/11 08:41:54;;;;;;;;;;;;;;;21.10;38.29;101661.47;4987197;28;19937;-86
2023/05/11 08:44:20;;;;;;;;;;;;;;;21.41;37.35;101653.56;4968794;28;19922;-87
2023/05/11 08:46:48;;;;;;;;;;;;;;;21.78;36.82;101664.13;4987443;28;20379;-85
2023/05/11 08:49:13;;;;;;;;;;;;;;;21.75;36.95;101648.09;4983410;28;19965;-89
2023/05/11 08:51:42;;;;;;;;;;;;;;;22.16;36.08;101644.25;4967549;28;20309;-85
2023/05/11 08:54:09;;;;;;;;;;;;;;;22.61;35.00;101642.47;5003623;28;19922;-85
2023/05/11 08:56:34;;;;;;;;;;;;;;;23.59;33.50;101633.03;4983045;28;19926;-86
2023/05/11 08:59:02;;;;;;;;;;;;;;;23.94;33.15;101647.09;4982907;28;20023;-84
2023/05/11 09:01:27;;;;;;;;;;;;;;;23.54;33.56;101630.94;4972893;28;20024;-83
2023/05/11 09:03:55;;;;;;;;;;;;;;;22.86;34.10;101631.59;4967802;28;19980;-82
2023/05/11 09:06:22;;;;;;;;;;;;;;;23.89;33.31;101637.88;4991821;28;20341;-84
2023/05/11 09:08:47;;;;;;;;;;;;;;;25.81;30.06;101634.47;4990882;28;19925;-85
2023/05/11 09:11:13;;;;;;;;;;;;;;;26.44;28.71;101626.53;4967133;28;19925;-84
2023/05/11 09:13:38;;;;;;;;;;;;;;;25.80;29.77;101627.28;4971520;28;19921;-86
2023/05/11 09:16:03;;;;;;;;;;;;;;;24.18;32.48;101626.13;4970966;28;19928;-87
2023/05/11 09:18:29;;;;;;;;;;;;;;;25.29;30.57;101620.50;4962444;28;19932;-84
2023/05/11 09:20:54;;;;;;;;;;;;;;;25.62;30.41;101617.22;4971461;28;20418;-84
2023/05/11 09:23:24;;;;;;;;;;;;;;;26.46;29.16;101627.13;4981784;28;19922;-85
2023/05/11 09:25:49;;;;;;;;;;;;;;;27.51;27.84;101617.56;4988450;28;19975;-85
2023/05/11 09:28:17;;;;;;;;;;;;;;;25.34;29.28;101617.88;4980981;28;19921;-84
2023/05/11 09:30:43;;;;;;;;;;;;;;;24.67;31.54;101619.88;4973403;28;19941;-86
2023/05/11 09:33:08;;;;;;;;;;;;;;;25.37;30.82;101620.16;4988170;28;19977;-87
2023/05/11 09:35:33;;;;;;;;;;;;;;;26.47;29.09;101615.00;4985900;28;19923;-84
2023/05/11 09:37:59;;;;;;;;;;;;;;;26.73;28.79;101603.41;4983439;28;19921;-84
2023/05/11 09:40:26;;;;;;;;;;;;;;;27.72;27.39;101601.28;4982511;28;19926;-83
2023/05/11 09:42:51;;;;;;;;;;;;;;;28.83;25.92;101606.66;4991244;28;19972;-83
2023/05/11 09:45:36;;;;;;;;;;;;;;;27.25;26.66;101605.22;4979139;28;19910;-85
2023/05/11 09:48:02;;;;;;;;;;;;;;;25.88;29.39;101618.69;5006315;28;19921;-85
2023/05/11 09:50:32;;;;;;;;;;;;;;;24.89;30.75;101614.72;4985122;28;20434;-83
2023/05/11 09:52:58;;;;;;;;;;;;;;;25.96;29.34;101611.13;4993895;28;20335;-85
2023/05/11 09:55:24;;;;;;;;;;;;;;;26.47;28.88;101618.59;4957132;28;19925;-86
2023/05/11 09:57:58;;;;;;;;;;;;;;;25.47;30.00;101616.81;4982607;28;20013;-86
2023/05/11 10:00:26;;;;;;;;;;;;;;;25.49;30.01;101632.03;4987122;28;19922;-87
2023/05/11 10:03:06;;;;;;;;;;;;;;;24.63;30.73;101606.63;4968635;28;19922;-83
2023/05/11 10:05:32;;;;;;;;;;;;;;;24.62;30.90;101607.66;4986789;28;20381;-83
2023/05/11 10:08:01;;;;;;;;;;;;;;;25.98;29.63;101600.72;4975341;28;20025;-84
2023/05/11 10:10:28;;;;;;;;;;;;;;;26.65;28.39;101603.81;4987301;28;19926;-84
2023/05/11 10:12:55;;;;;;;;;;;;;;;25.89;28.63;101617.63;4965641;28;20000;-83
2023/05/11 10:15:24;;;;;;;;;;;;;;;25.28;29.62;101602.31;4988246;28;20398;-83
2023/05/11 10:17:49;;;;;;;;;;;;;;;26.68;27.49;101595.03;4969180;28;19984;-84
2023/05/11 10:20:14;;;;;;;;;;;;;;;25.73;29.07;101615.56;4986279;28;19929;-84
2023/05/11 10:22:42;;;;;;;;;;;;;;;26.78;27.88;101610.94;4970103;28;19930;-84
2023/05/11 10:25:07;;;;;;;;;;;;;;;26.97;27.24;101608.81;4988207;28;19968;-86
2023/05/11 10:27:33;;;;;;;;;;;;;;;27.46;26.12;101595.34;4970580;28;19922;-84
2023/05/11 10:29:58;;;;;;;;;;;;;;;26.45;27.16;101606.13;4968503;28;20441;-84
2023/05/11 10:32:23;;;;;;;;;;;;;;;27.03;27.23;101595.97;4987860;28;20726;-85
2023/05/11 10:34:49;;;;;;;;;;;;;;;25.64;28.99;101604.03;4980452;28;19969;-88
2023/05/11 10:37:15;;;;;;;;;;;;;;;24.79;30.99;101609.78;4972442;28;21577;-85
2023/05/11 10:39:40;;;;;;;;;;;;;;;24.84;31.66;101602.53;4970828;28;19925;-88
2023/05/11 10:42:19;;;;;;;;;;;;;;;25.28;30.75;101596.81;4967913;28;19918;-90
2023/05/11 10:44:45;;;;;;;;;;;;;;;25.18;30.00;101602.06;4970725;28;19921;-83
2023/05/11 10:47:20;;;;;;;;;;;;;;;24.05;31.71;101600.75;4984963;28;19937;-84
2023/05/11 10:49:48;;;;;;;;;;;;;;;22.06;34.74;101612.69;4986613;28;20414;-84
2023/05/11 10:52:16;;;;;;;;;;;;;;;22.59;34.14;101605.38;4987541;28;19921;-83
2023/05/11 10:54:48;;;;;;;;;;;;;;;23.60;33.00;101607.28;4988362;28;19925;-84
2023/05/11 10:57:19;;;;;;;;;;;;;;;21.77;35.47;101602.19;4966009;28;19922;-85
2023/05/11 10:59:56;;;;;;;;;;;;;;;22.60;34.71;101607.06;4964196;28;19922;-84
2023/05/11 11:02:23;;;;;;;;;;;;;;;22.93;34.53;101607.72;4960897;28;20310;-85
2023/05/11 11:04:50;;;;;;;;;;;;;;;21.49;37.17;101628.75;4970985;28;20001;-83
2023/05/11 11:07:19;;;;;;;;;;;;;;;20.69;38.86;101614.03;4983074;28;19945;-83
2023/05/11 11:09:55;;;;;;;;;;;;;;;21.53;38.07;101620.94;4983777;28;20049;-87
2023/05/11 11:12:22;;;;;;;;;;;;;;;21.77;37.04;101607.66;4979858;28;19921;-84
2023/05/11 11:15:16;;;;;;;;;;;;;;;21.58;36.79;101615.69;4976125;28;19938;-84
2023/05/11 11:17:43;;;;;;;;;;;;;;;21.09;38.88;101611.41;4961804;28;20291;-84
2023/05/11 11:20:09;;;;;;;;;;;;;;;20.64;38.64;101619.28;4958490;28;20462;-85
2023/05/11 11:22:39;;;;;;;;;;;;;;;20.38;40.06;101603.59;4975930;28;19922;-85
2023/05/11 11:25:05;;;;;;;;;;;;;;;18.96;43.07;101619.06;4979089;28;19929;-86
2023/05/11 11:27:39;;;;;;;;;;;;;;;18.54;44.58;101604.28;4969511;28;19925;-84
2023/05/11 11:30:18;;;;;;;;;;;;;;;19.08;43.83;101607.63;4989472;28;19976;-85
2023/05/11 11:32:44;;;;;;;;;;;;;;;19.68;42.19;101602.69;4982077;28;20016;-84
2023/05/11 11:35:29;;;;;;;;;;;;;;;19.46;43.03;101605.47;4987515;28;20423;-85
2023/05/11 11:38:03;;;;;;;;;;;;;;;19.56;42.28;101595.06;4985008;28;19989;-84
2023/05/11 11:40:37;;;;;;;;;;;;;;;19.88;41.79;101598.28;4985850;28;20001;-83
2023/05/11 11:43:13;;;;;;;;;;;;;;;20.78;40.47;101601.88;4965851;28;19930;-85
2023/05/11 11:45:39;;;;;;;;;;;;;;;21.14;39.84;101597.97;4983761;28;20432;-84
2023/05/11 11:48:08;;;;;;;;;;;;;;;21.00;40.26;101591.63;4985799;28;19926;-83
2023/05/11 11:50:33;;;;;;;;;;;;;;;20.84;39.92;101594.75;4974047;28;20004;-83
2023/05/11 11:52:59;;;;;;;;;;;;;;;21.03;39.86;101606.78;4999348;28;19934;-84
2023/05/11 11:55:44;;;;;;;;;;;;;;;21.11;39.42;101598.38;4986660;28;19933;-88
2023/05/11 11:58:10;;;;;;;;;;;;;;;20.58;40.17;101595.50;4985875;28;19922;-87
2023/05/11 12:00:36;;;;;;;;;;;;;;;20.87;40.16;101589.69;4985418;28;19953;-87
2023/05/11 12:03:01;;;;;;;;;;;;;;;20.76;40.57;101598.50;4968335;28;19975;-88
2023/05/11 12:05:28;;;;;;;;;;;;;;;20.76;40.33;101601.22;4970878;28;19942;-85
2023/05/11 12:07:53;;;;;;;;;;;;;;;20.79;40.09;101603.56;4968500;28;19918;-86
2023/05/11 12:10:19;;;;;;;;;;;;;;;20.04;41.32;101591.63;4976567;28;20118;-85
2023/05/11 12:12:49;;;;;;;;;;;;;;;19.80;42.53;101582.03;4982232;28;19954;-87
2023/05/11 12:15:24;;;;;;;;;;;;;;;20.11;42.14;101580.75;4976440;28;19946;-86
2023/05/11 12:17:49;;;;;;;;;;;;;;;19.45;42.79;101587.41;4981678;28;19925;-84
2023/05/11 12:20:15;;;;;;;;;;;;;;;18.01;45.98;101589.13;4985564;28;19922;-85
2023/05/11 12:22:41;;;;;;;;;;;;;;;18.81;44.60;101584.72;4982473;28;19957;-87
2023/05/11 12:25:07;;;;;;;;;;;;;;;19.17;43.45;101584.66;4985690;28;19972;-85
2023/05/11 12:27:32;;;;;;;;;;;;;;;19.61;43.79;101584.38;4989107;28;19921;-84
2023/05/11 12:29:59;;;;;;;;;;;;;;;19.90;42.29;101579.81;4995419;28;19928;-85
2023/05/11 12:32:31;;;;;;;;;;;;;;;19.57;41.95;101590.44;4971247;28;19945;-88
2023/05/11 12:35:00;;;;;;;;;;;;;;;19.16;43.03;101581.09;4984721;28;20359;-87
2023/05/11 12:37:25;;;;;;;;;;;;;;;18.79;44.51;101581.34;4980690;28;19922;-86
2023/05/11 12:39:54;;;;;;;;;;;;;;;19.10;45.99;101579.13;4987922;28;19922;-86
2023/05/11 12:42:22;;;;;;;;;;;;;;;19.32;44.17;101576.41;4981975;28;19922;-88
2023/05/11 12:44:50;;;;;;;;;;;;;;;19.30;43.45;101565.69;4980644;28;19918;-87
2023/05/11 12:47:16;;;;;;;;;;;;;;;18.37;44.55;101569.28;4982456;28;19921;-87
2023/05/11 12:49:41;;;;;;;;;;;;;;;18.52;44.36;101559.22;4980339;28;20029;-87
2023/05/11 12:52:08;;;;;;;;;;;;;;;18.55;44.56;101553.38;4984323;28;20072;-87
2023/05/11 12:54:38;;;;;;;;;;;;;;;18.54;44.29;101540.78;4987252;28;19930;-86
2023/05/11 12:57:07;;;;;;;;;;;;;;;17.97;45.69;101538.84;4967577;28;19922;-86
2023/05/11 12:59:39;;;;;;;;;;;;;;;18.29;44.82;101537.59;4989475;28;19925;-86
2023/05/11 13:02:10;;;;;;;;;;;;;;;18.34;45.20;101530.53;4983475;28;20321;-87